Time;durP1;ratioP1;P1;durP2;ratioP2;P2;SDS_P1;SDS_P2;PMS_P1;PMS_P2;Temp;Humidity;BMP_temperature;BMP_pressure;BME280_temperature;BME280_humidity;BME280_pressure;Samples;Min_cycle;Max_cycle;Signal;HPM_P1;HPM_P2
2024/03/15 00:00:14;;;;;;;4.60;2.92;;;13.80;99.90;;;;;;5014331;28;20480;-82
2024/03/15 00:02:42;;;;;;;3.92;2.70;;;13.80;99.90;;;;;;5029971;28;20029;-83
2024/03/15 00:05:09;;;;;;;4.50;3.10;;;13.80;99.90;;;;;;5013632;28;20022;-84
2024/03/15 00:07:35;;;;;;;4.68;3.13;;;13.80;99.90;;;;;;5013487;28;20129;-83
2024/03/15 00:10:01;;;;;;;6.10;3.80;;;13.80;99.90;;;;;;5013273;28;20037;-83
2024/03/15 00:12:26;;;;;;;4.93;3.33;;;13.80;99.90;;;;;;4997183;28;20034;-82
2024/03/15 00:14:52;;;;;;;5.60;3.50;;;13.80;99.90;;;;;;4996454;28;20029;-84
2024/03/15 00:17:18;;;;;;;4.30;3.28;;;13.80;99.90;;;;;;5012815;28;20394;-84
2024/03/15 00:19:43;;;;;;;4.35;2.67;;;13.80;99.90;;;;;;5012626;28;20088;-83
2024/03/15 00:22:09;;;;;;;4.18;3.40;;;13.80;99.90;;;;;;5013997;28;20034;-84
2024/03/15 00:24:36;;;;;;;3.42;3.13;;;13.80;99.90;;;;;;5012301;28;20034;-83
2024/03/15 00:27:01;;;;;;;6.68;3.90;;;13.70;99.90;;;;;;5012893;28;20076;-83
2024/03/15 00:29:28;;;;;;;5.35;3.28;;;13.70;99.90;;;;;;5013124;28;20466;-84
2024/03/15 00:31:57;;;;;;;4.22;3.63;;;13.70;99.90;;;;;;5013435;28;20442;-83
2024/03/15 00:34:23;;;;;;;4.63;3.65;;;13.70;99.90;;;;;;4997440;28;20032;-84
2024/03/15 00:36:49;;;;;;;5.70;3.40;;;13.60;99.90;;;;;;4997729;28;20036;-82
2024/03/15 00:39:15;;;;;;;4.68;3.50;;;13.70;99.90;;;;;;5000741;28;20081;-83
2024/03/15 00:41:42;;;;;;;5.25;3.38;;;13.70;99.90;;;;;;5037953;28;20044;-84
2024/03/15 00:44:08;;;;;;;5.40;3.47;;;13.70;99.90;;;;;;5021683;28;20016;-84
2024/03/15 00:46:33;;;;;;;6.60;3.97;;;13.70;99.90;;;;;;5037938;28;20033;-84
2024/03/15 00:48:59;;;;;;;5.00;4.03;;;13.70;99.90;;;;;;5037967;28;20053;-83
2024/03/15 00:51:25;;;;;;;6.07;3.78;;;13.60;99.90;;;;;;5027315;28;20037;-84
2024/03/15 00:53:51;;;;;;;5.65;3.70;;;13.60;99.90;;;;;;5017276;28;20029;-84
2024/03/15 00:56:17;;;;;;;4.93;3.63;;;13.60;99.90;;;;;;5013296;28;20433;-83
2024/03/15 00:58:43;;;;;;;4.88;3.50;;;13.60;99.90;;;;;;5012628;28;20478;-84
2024/03/15 01:01:10;;;;;;;4.63;3.38;;;13.60;99.90;;;;;;5012870;28;20088;-84
2024/03/15 01:03:36;;;;;;;4.93;3.78;;;13.70;99.90;;;;;;5012460;28;20367;-83
2024/03/15 01:06:02;;;;;;;5.85;3.42;;;13.70;99.90;;;;;;5013782;28;20022;-84
2024/03/15 01:08:28;;;;;;;6.53;4.03;;;13.70;99.90;;;;;;5028706;28;20037;-82
2024/03/15 01:10:53;;;;;;;4.28;3.88;;;13.70;99.90;;;;;;5012508;28;20026;-83
2024/03/15 01:13:19;;;;;;;4.47;3.90;;;13.70;99.90;;;;;;5012210;28;20135;-84
2024/03/15 01:15:46;;;;;;;5.60;4.15;;;13.70;99.90;;;;;;5013636;28;20041;-82
2024/03/15 01:18:12;;;;;;;5.57;3.60;;;13.70;99.90;;;;;;5028791;28;20030;-84
2024/03/15 01:20:39;;;;;;;5.10;3.92;;;13.70;99.90;;;;;;5012165;28;20029;-84
2024/03/15 01:23:05;;;;;;;5.38;3.67;;;13.70;99.90;;;;;;5013740;28;20076;-83
2024/03/15 01:25:31;;;;;;;5.15;3.22;;;13.70;99.90;;;;;;5015048;28;20025;-83
2024/03/15 01:27:59;;;;;;;4.85;3.53;;;13.70;99.90;;;;;;5016113;28;20440;-84
2024/03/15 01:30:25;;;;;;;5.97;3.83;;;13.70;99.90;;;;;;5032863;28;20030;-82
2024/03/15 01:32:51;;;;;;;6.75;4.15;;;13.70;99.90;;;;;;5017389;28;20040;-83
2024/03/15 01:35:17;;;;;;;5.38;3.80;;;13.70;99.90;;;;;;5017459;28;20026;-83
2024/03/15 01:37:43;;;;;;;4.97;3.83;;;13.70;99.90;;;;;;5017408;28;20470;-83
2024/03/15 01:40:11;;;;;;;4.72;3.83;;;13.70;99.90;;;;;;5016174;28;20030;-82
2024/03/15 01:42:37;;;;;;;7.03;3.78;;;13.70;99.90;;;;;;5017192;28;20049;-84
2024/03/15 01:45:06;;;;;;;6.40;3.60;;;13.70;99.90;;;;;;5017584;28;20030;-83
2024/03/15 01:47:32;;;;;;;4.75;3.50;;;13.60;99.90;;;;;;5032485;28;20033;-83
2024/03/15 01:50:00;;;;;;;4.75;3.67;;;13.70;99.90;;;;;;4999610;28;20045;-83
2024/03/15 01:52:26;;;;;;;4.63;3.67;;;13.70;99.90;;;;;;5017144;28;20044;-83
2024/03/15 01:54:52;;;;;;;5.60;4.13;;;13.70;99.90;;;;;;5015668;28;20529;-83
2024/03/15 01:57:19;;;;;;;8.20;4.30;;;13.70;99.90;;;;;;5032255;28;20032;-83
2024/03/15 01:59:45;;;;;;;5.53;4.35;;;13.60;99.90;;;;;;5016930;28;20056;-83
2024/03/15 02:02:13;;;;;;;5.85;3.55;;;13.70;99.90;;;;;;5032674;28;20034;-84
2024/03/15 02:04:40;;;;;;;4.68;3.55;;;13.70;99.90;;;;;;5016429;28;20037;-84
2024/03/15 02:07:09;;;;;;;5.07;3.88;;;13.70;99.90;;;;;;4999665;28;20088;-84
2024/03/15 02:09:35;;;;;;;4.57;3.63;;;13.70;99.90;;;;;;5015723;28;20026;-83
2024/03/15 02:12:00;;;;;;;10.80;3.85;;;13.70;99.90;;;;;;5015729;28;20470;-83
2024/03/15 02:14:26;;;;;;;6.28;4.05;;;13.70;99.90;;;;;;5016041;28;20022;-83
2024/03/15 02:16:54;;;;;;;6.13;3.85;;;13.70;99.90;;;;;;4999861;28;20545;-83
2024/03/15 02:19:20;;;;;;;5.22;4.22;;;13.70;99.90;;;;;;5034048;28;20045;-82
2024/03/15 02:21:49;;;;;;;5.10;3.80;;;13.70;99.90;;;;;;5052610;28;20153;-83
2024/03/15 02:24:15;;;;;;;6.68;3.85;;;13.70;99.90;;;;;;5038619;28;20029;-85
2024/03/15 02:26:41;;;;;;;6.30;3.63;;;13.70;99.90;;;;;;5031129;28;20072;-88
2024/03/15 02:29:08;;;;;;;5.10;3.90;;;13.70;99.90;;;;;;5007764;28;20045;-88
2024/03/15 02:31:34;;;;;;;6.57;4.20;;;13.70;99.90;;;;;;5018379;28;20018;-85
2024/03/15 02:34:00;;;;;;;5.50;3.53;;;13.70;99.90;;;;;;5016863;28;20030;-88
2024/03/15 02:36:26;;;;;;;5.85;3.78;;;13.70;99.90;;;;;;5000024;28;20022;-90
2024/03/15 02:38:52;;;;;;;6.78;3.75;;;13.70;99.90;;;;;;5016078;28;20022;-89
2024/03/15 02:41:18;;;;;;;7.18;4.10;;;13.70;99.90;;;;;;5032729;28;20080;-89
2024/03/15 02:43:44;;;;;;;7.47;3.88;;;13.70;99.90;;;;;;5000575;28;20037;-88
2024/03/15 02:46:10;;;;;;;5.13;3.75;;;13.70;99.90;;;;;;5032687;28;20022;-89
2024/03/15 02:48:38;;;;;;;4.45;3.55;;;13.70;99.90;;;;;;5016399;28;20080;-88
2024/03/15 02:51:07;;;;;;;5.53;3.75;;;13.70;99.90;;;;;;5032860;28;20060;-90
2024/03/15 02:53:33;;;;;;;6.00;3.78;;;13.70;99.90;;;;;;5016157;28;20038;-89
2024/03/15 02:56:02;;;;;;;6.78;3.83;;;13.70;99.90;;;;;;5016096;28;20026;-89
2024/03/15 02:58:29;;;;;;;4.97;3.60;;;13.70;99.90;;;;;;5032464;28;20018;-88
2024/03/15 03:00:54;;;;;;;6.20;3.80;;;13.70;99.90;;;;;;5017586;28;20021;-89
2024/03/15 03:03:21;;;;;;;4.78;3.70;;;13.80;99.90;;;;;;5032800;28;20488;-87
2024/03/15 03:05:47;;;;;;;5.22;3.55;;;13.70;99.90;;;;;;5033183;28;20053;-88
2024/03/15 03:08:14;;;;;;;5.85;4.18;;;13.70;99.90;;;;;;5016711;28;20030;-88
2024/03/15 03:10:43;;;;;;;5.95;4.45;;;13.70;99.90;;;;;;5032944;28;20022;-88
2024/03/15 03:13:09;;;;;;;6.35;4.07;;;13.70;99.90;;;;;;5017386;28;20516;-89
2024/03/15 03:15:35;;;;;;;9.10;4.35;;;13.70;99.90;;;;;;5033789;28;20474;-88
2024/03/15 03:18:01;;;;;;;6.25;4.00;;;13.70;99.90;;;;;;5016882;28;20030;-88
2024/03/15 03:20:33;;;;;;;5.40;3.60;;;13.70;99.90;;;;;;5033651;28;20113;-88
2024/03/15 03:23:08;;;;;;;4.70;3.95;;;13.60;99.90;;;;;;5017447;28;20060;-87
2024/03/15 03:25:34;;;;;;;7.55;4.05;;;13.60;99.90;;;;;;5021527;28;20056;-87
2024/03/15 03:28:00;;;;;;;8.88;3.67;;;13.70;99.90;;;;;;5021512;28;20026;-88
2024/03/15 03:30:26;;;;;;;4.72;3.10;;;13.70;99.90;;;;;;5041388;28;20044;-88
2024/03/15 03:32:52;;;;;;;5.68;3.78;;;13.70;99.90;;;;;;5040177;28;20054;-88
2024/03/15 03:35:18;;;;;;;6.28;3.88;;;13.70;99.90;;;;;;5034514;28;20037;-89
2024/03/15 03:37:43;;;;;;;7.93;3.70;;;13.70;99.90;;;;;;5022996;28;20019;-88
2024/03/15 03:40:15;;;;;;;6.47;3.72;;;13.70;99.90;;;;;;5046659;28;20037;-89
2024/03/15 03:42:43;;;;;;;;;;;13.70;99.90;;;;;;5024016;28;20037;-88
2024/03/15 03:45:16;;;;;;;5.72;3.40;;;13.70;99.90;;;;;;5037097;28;19914;-88
2024/03/15 03:47:50;;;;;;;6.28;3.65;;;13.70;99.90;;;;;;5037440;28;20462;-89
2024/03/15 03:50:19;;;;;;;5.28;3.67;;;13.70;99.90;;;;;;5036822;28;20474;-89
2024/03/15 03:52:46;;;;;;;5.40;3.60;;;13.70;99.90;;;;;;5021701;28;20030;-87
2024/03/15 03:55:14;;;;;;;7.07;3.95;;;13.70;99.90;;;;;;5046787;28;20018;-89
2024/03/15 03:57:41;;;;;;;7.00;4.00;;;13.60;99.90;;;;;;5026417;28;20033;-89
2024/03/15 04:00:14;;;;;;;5.53;3.85;;;13.70;99.90;;;;;;5053739;28;20037;-89
2024/03/15 04:02:48;;;;;;;8.50;4.18;;;13.60;99.90;;;;;;5053162;28;20026;-89
2024/03/15 04:05:15;;;;;;;5.95;4.00;;;13.60;99.90;;;;;;5035388;28;20041;-88
2024/03/15 04:07:42;;;;;;;6.65;4.15;;;13.60;99.90;;;;;;5046105;28;20084;-87
2024/03/15 04:10:08;;;;;;;5.15;3.92;;;13.70;99.90;;;;;;5033563;28;20056;-88
2024/03/15 04:12:35;;;;;;;6.60;3.95;;;13.60;99.90;;;;;;5014983;28;20022;-88
2024/03/15 04:15:01;;;;;;;5.65;4.35;;;13.60;99.90;;;;;;5031144;28;20097;-89
2024/03/15 04:17:30;;;;;;;5.93;4.18;;;13.60;99.90;;;;;;5014369;28;20018;-88
2024/03/15 04:19:57;;;;;;;6.00;4.03;;;13.50;99.90;;;;;;5015219;28;20018;-89
2024/03/15 04:22:25;;;;;;;6.55;4.28;;;13.60;99.90;;;;;;5014348;28;20040;-89
2024/03/15 04:24:52;;;;;;;5.85;4.10;;;13.50;99.90;;;;;;5015681;28;20043;-88
2024/03/15 04:27:18;;;;;;;10.15;4.38;;;13.50;99.90;;;;;;4998120;28;20057;-88
2024/03/15 04:29:44;;;;;;;5.85;4.07;;;13.50;99.90;;;;;;5015379;28;20049;-87
2024/03/15 04:32:12;;;;;;;5.43;4.00;;;13.50;99.90;;;;;;5030382;28;20128;-88
2024/03/15 04:34:40;;;;;;;6.53;4.03;;;13.50;99.90;;;;;;5014268;28;20022;-87
2024/03/15 04:37:11;;;;;;;7.63;4.28;;;13.50;99.90;;;;;;5014107;28;20169;-87
2024/03/15 04:39:37;;;;;;;6.43;4.38;;;13.50;99.90;;;;;;5030559;28;20056;-88
2024/03/15 04:42:03;;;;;;;8.40;4.55;;;13.50;99.90;;;;;;5013958;28;20022;-87
2024/03/15 04:44:33;;;;;;;6.78;4.15;;;13.50;99.90;;;;;;5030159;28;20025;-88
2024/03/15 04:47:01;;;;;;;6.45;4.45;;;13.50;99.90;;;;;;5014410;28;20026;-88
2024/03/15 04:49:28;;;;;;;7.32;4.60;;;13.50;99.90;;;;;;5013912;28;20029;-87
2024/03/15 04:51:56;;;;;;;7.22;4.57;;;13.50;99.90;;;;;;4997407;28;20101;-89
2024/03/15 04:54:22;;;;;;;8.98;5.25;;;13.50;99.90;;;;;;5014056;28;20116;-88
2024/03/15 04:56:48;;;;;;;6.82;4.28;;;13.50;99.90;;;;;;5014144;28;20100;-88
2024/03/15 04:59:15;;;;;;;5.47;3.70;;;13.50;99.90;;;;;;5030081;28;20018;-87
2024/03/15 05:01:42;;;;;;;7.85;4.63;;;13.50;99.90;;;;;;5029861;28;20109;-88
2024/03/15 05:04:08;;;;;;;5.35;3.88;;;13.50;99.90;;;;;;5013674;28;20503;-89
2024/03/15 05:06:35;;;;;;;5.07;3.80;;;13.50;99.90;;;;;;5013390;28;20367;-89
2024/03/15 05:09:00;;;;;;;9.15;3.90;;;13.50;99.90;;;;;;5030329;28;20026;-87
2024/03/15 05:11:26;;;;;;;4.93;4.00;;;13.50;99.90;;;;;;5030049;28;20024;-90
2024/03/15 05:13:57;;;;;;;6.53;4.70;;;13.50;99.90;;;;;;5029607;28;20114;-85
2024/03/15 05:16:23;;;;;;;7.00;4.00;;;13.50;99.90;;;;;;5013815;28;20080;-89
2024/03/15 05:18:48;;;;;;;5.68;3.58;;;13.50;99.90;;;;;;5013563;28;20482;-88
2024/03/15 05:21:14;;;;;;;5.55;4.38;;;13.50;99.90;;;;;;4997460;28;20022;-89
2024/03/15 05:23:40;;;;;;;6.38;3.65;;;13.40;99.90;;;;;;5031273;28;20018;-88
2024/03/15 05:26:06;;;;;;;4.65;3.78;;;13.50;99.90;;;;;;5015245;28;20052;-88
2024/03/15 05:28:35;;;;;;;4.93;3.42;;;13.50;99.90;;;;;;5032834;28;20447;-88
2024/03/15 05:31:04;;;;;;;4.05;3.60;;;13.40;99.90;;;;;;5034494;28;20037;-89
2024/03/15 05:33:30;;;;;;;6.32;4.18;;;13.50;99.90;;;;;;5004847;28;20061;-89
2024/03/15 05:35:56;;;;;;;5.65;3.50;;;13.40;99.90;;;;;;5025180;28;20104;-85
2024/03/15 05:38:23;;;;;;;5.75;3.40;;;13.40;99.90;;;;;;5036465;28;20021;-91
2024/03/15 05:40:49;;;;;;;5.72;3.72;;;13.40;99.90;;;;;;5034838;28;20026;-89
2024/03/15 05:43:15;;;;;;;5.40;3.78;;;13.40;99.90;;;;;;5028106;28;20022;-88
2024/03/15 05:45:41;;;;;;;4.38;3.40;;;13.40;99.90;;;;;;5015121;28;20477;-88
2024/03/15 05:48:07;;;;;;;5.97;4.05;;;13.40;99.90;;;;;;5030760;28;20022;-91
2024/03/15 05:50:33;;;;;;;5.75;3.75;;;13.40;99.90;;;;;;5014413;28;20011;-89
2024/03/15 05:53:00;;;;;;;4.88;3.63;;;13.40;99.90;;;;;;5013948;28;20061;-90
2024/03/15 05:55:31;;;;;;;6.43;3.55;;;13.40;99.90;;;;;;5013634;28;20026;-90
2024/03/15 05:58:01;;;;;;;7.18;3.67;;;13.40;99.90;;;;;;5013550;28;20022;-86
2024/03/15 06:00:27;;;;;;;5.53;3.10;;;13.40;99.90;;;;;;5030109;28;20049;-91
2024/03/15 06:02:53;;;;;;;4.85;3.63;;;13.40;99.90;;;;;;5013229;28;20061;-92
2024/03/15 06:05:19;;;;;;;5.50;3.75;;;13.50;99.90;;;;;;5030404;28;20064;-94
2024/03/15 06:07:45;;;;;;;4.93;3.45;;;13.50;99.90;;;;;;5033136;28;20056;-91
2024/03/15 06:10:11;;;;;;;4.13;3.25;;;13.50;99.90;;;;;;5019627;28;20018;-92
2024/03/15 06:12:37;;;;;;;7.43;4.28;;;13.50;99.90;;;;;;5032740;28;20033;-93
2024/03/15 06:15:03;;;;;;;6.50;3.30;;;13.40;99.90;;;;;;5001009;28;20022;-91
2024/03/15 06:17:32;;;;;;;5.18;3.50;;;13.50;99.90;;;;;;5033635;28;20014;-87
2024/03/15 06:19:58;;;;;;;4.68;3.50;;;13.40;99.90;;;;;;5033976;28;20088;-92
2024/03/15 06:22:27;;;;;;;4.18;3.13;;;13.50;99.90;;;;;;5019502;28;20374;-94
2024/03/15 06:24:56;;;;;;;4.78;3.60;;;13.50;99.90;;;;;;5033457;28;20470;-92
2024/03/15 06:27:21;;;;;;;4.95;3.28;;;13.40;99.90;;;;;;5033599;28;20312;-93
2024/03/15 06:29:52;;;;;;;8.27;3.40;;;13.50;99.90;;;;;;5016875;28;20046;-93
2024/03/15 06:32:25;;;;;;;4.00;3.17;;;13.50;99.90;;;;;;5033062;28;20025;-91
2024/03/15 06:34:53;;;;;;;6.85;3.38;;;13.50;99.90;;;;;;5017687;28;20033;-93
2024/03/15 06:37:22;;;;;;;4.65;3.28;;;13.50;99.90;;;;;;5017744;28;20030;-92
2024/03/15 06:42:35;;;;;;;4.43;3.88;;;13.50;99.90;;;;;;5018276;28;20091;-92
2024/03/15 06:45:23;;;;;;;4.25;3.10;;;13.50;99.90;;;;;;5017862;28;20026;-94
2024/03/15 06:48:02;;;;;;;5.85;3.30;;;13.50;99.90;;;;;;5018099;28;20112;-93
2024/03/15 06:50:37;;;;;;;4.72;3.22;;;13.50;99.90;;;;;;5003743;28;20053;-93
2024/03/15 06:53:06;;;;;;;4.88;3.22;;;13.60;99.90;;;;;;5002565;28;20033;-89
2024/03/15 06:55:31;;;;;;;5.57;3.20;;;13.60;99.90;;;;;;5016987;28;20026;-94
2024/03/15 06:58:01;;;;;;;4.82;3.33;;;13.60;99.90;;;;;;5016367;28;20164;-93
2024/03/15 07:00:30;;;;;;;5.20;3.35;;;13.60;99.90;;;;;;5016985;28;20073;-92
2024/03/15 07:02:56;;;;;;;4.70;3.20;;;13.60;99.90;;;;;;5016376;28;20033;-93
2024/03/15 07:05:25;;;;;;;8.43;3.53;;;13.60;99.90;;;;;;5016871;28;20022;-91
2024/03/15 07:07:56;;;;;;;4.20;2.83;;;13.60;99.90;;;;;;5032947;28;20022;-94
2024/03/15 07:10:22;;;;;;;4.53;3.00;;;13.60;99.90;;;;;;5017351;28;20034;-93
2024/03/15 07:12:49;;;;;;;5.28;3.05;;;13.60;99.90;;;;;;5002023;28;20084;-92
2024/03/15 07:15:15;;;;;;;3.80;2.92;;;13.70;99.90;;;;;;5035178;28;20098;-88
2024/03/15 07:17:44;;;;;;;5.03;3.25;;;13.70;99.90;;;;;;5056090;28;20097;-90
2024/03/15 07:20:12;;;;;;;4.65;3.35;;;13.80;99.90;;;;;;5039606;28;20028;-85
2024/03/15 07:22:40;;;;;;;5.70;3.28;;;13.70;99.90;;;;;;5036550;28;20009;-90
2024/03/15 07:25:06;;;;;;;6.50;3.65;;;13.80;99.90;;;;;;5023620;28;20018;-91
2024/03/15 07:27:32;;;;;;;5.82;3.85;;;13.80;99.90;;;;;;5016735;28;20038;-88
2024/03/15 07:30:04;;;;;;;6.38;4.00;;;13.80;99.90;;;;;;5016968;28;20058;-89
2024/03/15 07:32:30;;;;;;;5.32;3.15;;;13.80;99.90;;;;;;5031616;28;20052;-90
2024/03/15 07:34:56;;;;;;;6.03;3.58;;;13.80;99.90;;;;;;5031131;28;20478;-89
2024/03/15 07:37:22;;;;;;;4.75;3.08;;;13.90;99.90;;;;;;5031527;28;20029;-89
2024/03/15 07:39:48;;;;;;;4.32;3.22;;;13.90;99.90;;;;;;5032134;28;20482;-90
2024/03/15 07:42:14;;;;;;;6.65;3.40;;;14.00;99.90;;;;;;5031746;28;20107;-89
2024/03/15 07:44:42;;;;;;;4.28;3.25;;;14.00;99.90;;;;;;5032274;28;20030;-90
2024/03/15 07:47:09;;;;;;;5.10;3.00;;;14.10;99.90;;;;;;5015261;28;20026;-90
2024/03/15 07:49:37;;;;;;;3.80;3.17;;;14.10;99.90;;;;;;5031756;28;20049;-90
2024/03/15 07:52:03;;;;;;;4.47;3.00;;;14.10;99.90;;;;;;5015217;28;20049;-90
2024/03/15 07:54:29;;;;;;;5.68;3.00;;;14.10;99.90;;;;;;5015100;28;20033;-90
2024/03/15 07:56:55;;;;;;;4.82;3.28;;;14.10;99.90;;;;;;5015636;28;20026;-90
2024/03/15 07:59:21;;;;;;;4.28;3.13;;;14.10;99.90;;;;;;5031718;28;20022;-90
2024/03/15 08:01:46;;;;;;;5.22;3.20;;;14.10;99.90;;;;;;5031991;28;20026;-89
2024/03/15 08:04:14;;;;;;;4.22;3.00;;;14.10;99.90;;;;;;5031332;28;20021;-86
2024/03/15 08:06:40;;;;;;;6.35;3.05;;;14.10;99.90;;;;;;5015346;28;20184;-89
2024/03/15 08:09:06;;;;;;;5.82;3.20;;;14.20;99.90;;;;;;5031280;28;20022;-92
2024/03/15 08:11:34;;;;;;;5.20;3.00;;;14.20;99.90;;;;;;5015892;28;20048;-90
2024/03/15 08:14:03;;;;;;;5.38;3.03;;;14.20;99.90;;;;;;5031256;28;20030;-91
2024/03/15 08:16:35;;;;;;;4.55;2.78;;;14.30;99.90;;;;;;4999329;28;20030;-90
2024/03/15 08:19:06;;;;;;;3.55;2.55;;;14.30;99.90;;;;;;5015358;28;20125;-90
2024/03/15 08:21:33;;;;;;;10.00;3.10;;;14.30;99.90;;;;;;5031626;28;20429;-89
2024/03/15 08:24:09;;;;;;;5.18;2.97;;;14.30;99.90;;;;;;5031211;28;20078;-90
2024/03/15 08:26:44;;;;;;;4.03;2.72;;;14.30;99.90;;;;;;5031288;28;20021;-89
2024/03/15 08:29:12;;;;;;;3.55;2.60;;;14.30;99.90;;;;;;5031193;28;20045;-92
2024/03/15 08:31:39;;;;;;;5.72;3.00;;;14.40;99.90;;;;;;4999508;28;20061;-90
2024/03/15 08:34:07;;;;;;;4.78;2.75;;;14.40;99.90;;;;;;5015048;28;20026;-88
2024/03/15 08:36:34;;;;;;;3.90;2.63;;;14.40;99.90;;;;;;5030934;28;20049;-90
2024/03/15 08:39:01;;;;;;;3.97;2.70;;;14.40;99.90;;;;;;5015320;28;20022;-90
2024/03/15 08:41:27;;;;;;;5.13;2.35;;;14.40;99.90;;;;;;5031906;28;20528;-89
2024/03/15 08:43:53;;;;;;;6.70;3.03;;;14.50;99.90;;;;;;5031562;28;20026;-89
2024/03/15 08:46:18;;;;;;;5.32;2.83;;;14.50;99.90;;;;;;5015189;28;20058;-90
2024/03/15 08:48:44;;;;;;;4.50;2.90;;;14.50;99.90;;;;;;5016167;28;20032;-89
2024/03/15 08:51:12;;;;;;;5.63;2.63;;;14.50;99.90;;;;;;5035321;28;20021;-89
2024/03/15 08:53:38;;;;;;;5.25;2.60;;;14.50;99.90;;;;;;5049918;28;20038;-90
2024/03/15 08:56:04;;;;;;;4.15;2.75;;;14.40;99.90;;;;;;5037034;28;20051;-91
2024/03/15 08:58:31;;;;;;;5.75;2.58;;;14.40;99.90;;;;;;5036996;28;20029;-89
2024/03/15 09:00:57;;;;;;;4.38;2.60;;;14.40;99.90;;;;;;5050691;28;20022;-89
2024/03/15 09:03:26;;;;;;;4.45;2.63;;;14.30;99.90;;;;;;5037425;28;20033;-90
2024/03/15 09:05:52;;;;;;;4.82;2.70;;;14.30;99.90;;;;;;5030741;28;20080;-88
2024/03/15 09:08:21;;;;;;;3.33;2.55;;;14.30;99.90;;;;;;5030607;28;20018;-89
2024/03/15 09:10:49;;;;;;;5.63;2.83;;;14.30;99.90;;;;;;5015243;28;20030;-88
2024/03/15 09:13:16;;;;;;;4.15;2.63;;;14.30;99.90;;;;;;5013810;28;20021;-89
2024/03/15 09:15:44;;;;;;;4.13;2.70;;;14.30;99.90;;;;;;5030305;28;20056;-89
2024/03/15 09:18:11;;;;;;;3.22;2.65;;;14.30;99.90;;;;;;5030346;28;20032;-89
2024/03/15 09:20:44;;;;;;;5.25;2.88;;;14.30;99.90;;;;;;5013816;28;20018;-89
2024/03/15 09:23:12;;;;;;;7.97;3.05;;;14.40;99.90;;;;;;5013807;28;20030;-90
2024/03/15 09:25:42;;;;;;;6.40;3.00;;;14.40;99.90;;;;;;5030374;28;20029;-89
2024/03/15 09:28:09;;;;;;;3.53;2.70;;;14.40;99.90;;;;;;5014708;28;20133;-89
2024/03/15 09:33:09;;;;;;;5.82;3.10;;;14.40;99.90;;;;;;5014926;28;20566;-89
2024/03/15 09:35:40;;;;;;;4.15;2.45;;;14.40;99.90;;;;;;5030262;28;20045;-90
2024/03/15 09:38:11;;;;;;;3.72;2.00;;;14.40;99.90;;;;;;5014810;28;20024;-88
2024/03/15 09:40:37;;;;;;;;;;;14.40;99.90;;;;;;5014499;28;20072;-88
2024/03/15 09:43:04;;;;;;;4.50;2.22;;;14.30;99.90;;;;;;5030227;28;19901;-89
2024/03/15 09:45:31;;;;;;;4.68;2.53;;;14.30;99.90;;;;;;5013797;28;20029;-90
2024/03/15 09:47:59;;;;;;;5.80;2.42;;;14.30;99.90;;;;;;5032136;28;20036;-88
2024/03/15 09:50:27;;;;;;;3.45;2.03;;;14.40;99.90;;;;;;5018519;28;20029;-86
2024/03/15 09:52:53;;;;;;;3.60;2.20;;;14.50;99.90;;;;;;5033985;28;20383;-89
2024/03/15 09:55:22;;;;;;;4.85;2.10;;;14.60;99.90;;;;;;5017888;28;20022;-89
2024/03/15 09:57:49;;;;;;;3.13;1.70;;;14.70;99.90;;;;;;5033735;28;20377;-89
2024/03/15 10:00:22;;;;;;;5.00;1.60;;;14.80;99.90;;;;;;5017418;28;20482;-90
2024/03/15 10:02:51;;;;;;;5.43;1.95;;;14.80;99.90;;;;;;5033565;28;20057;-88
2024/03/15 10:05:20;;;;;;;5.15;2.10;;;14.90;99.90;;;;;;5033684;28;20540;-89
2024/03/15 10:07:47;;;;;;;5.43;1.75;;;14.90;99.90;;;;;;5033835;28;20285;-86
2024/03/15 10:10:13;;;;;;;4.50;1.50;;;14.90;99.90;;;;;;5017066;28;20045;-90
2024/03/15 10:12:40;;;;;;;4.10;1.67;;;15.00;99.90;;;;;;5033372;28;20032;-89
2024/03/15 10:15:10;;;;;;;5.00;1.92;;;15.00;99.90;;;;;;5033542;28;20065;-90
2024/03/15 10:17:43;;;;;;;4.30;1.40;;;15.00;99.90;;;;;;5033681;28;20029;-90
2024/03/15 10:20:16;;;;;;;4.65;1.70;;;15.10;99.90;;;;;;5017441;28;20391;-88
2024/03/15 10:22:42;;;;;;;4.55;2.20;;;15.20;99.90;;;;;;5032935;28;20026;-91
2024/03/15 10:25:21;;;;;;;3.83;1.52;;;15.30;99.90;;;;;;5034164;28;20113;-90
2024/03/15 10:27:50;;;;;;;3.35;1.80;;;15.40;99.90;;;;;;5034560;28;20089;-88
2024/03/15 10:30:17;;;;;;;6.37;2.03;;;15.50;99.90;;;;;;5036652;28;20049;-90
2024/03/15 10:32:49;;;;;;;3.17;1.45;;;15.60;99.90;;;;;;5043580;28;20026;-90
2024/03/15 10:35:20;;;;;;;5.43;2.00;;;15.60;99.90;;;;;;5044065;28;20033;-89
2024/03/15 10:37:47;;;;;;;3.85;2.03;;;15.60;99.90;;;;;;5025357;28;20022;-92
2024/03/15 10:40:21;;;;;;;4.93;1.73;;;15.60;99.90;;;;;;5032797;28;20025;-90
2024/03/15 10:42:54;;;;;;;4.07;1.77;;;15.70;99.90;;;;;;5038825;28;20080;-90
2024/03/15 10:45:24;;;;;;;4.40;1.52;;;15.80;99.90;;;;;;5036250;28;20026;-91
2024/03/15 10:47:51;;;;;;;6.10;1.70;;;15.80;99.90;;;;;;5018809;28;20438;-90
2024/03/15 10:50:19;;;;;;;3.33;1.63;;;15.90;99.90;;;;;;5018173;28;20038;-93
2024/03/15 10:52:48;;;;;;;5.72;2.22;;;16.00;99.90;;;;;;5035597;28;20470;-92
2024/03/15 10:55:24;;;;;;;4.45;1.80;;;16.00;99.90;;;;;;5033861;28;20398;-93
2024/03/15 10:57:55;;;;;;;3.85;1.88;;;16.00;99.90;;;;;;5033790;28;20429;-91
2024/03/15 11:00:26;;;;;;;3.63;1.85;;;16.10;99.90;;;;;;5017125;28;20026;-91
2024/03/15 11:02:55;;;;;;;;;;;16.00;99.90;;;;;;5033342;28;20033;-90
2024/03/15 11:05:25;;;;;;;6.32;2.10;;;16.20;99.90;;;;;;5016491;28;20059;-92
2024/03/15 11:08:15;;;;;;;4.85;2.00;;;16.20;99.90;;;;;;5032939;28;20017;-92
2024/03/15 11:10:55;;;;;;;5.15;2.28;;;16.30;99.90;;;;;;5016146;28;20082;-90
2024/03/15 11:13:25;;;;;;;5.00;2.47;;;16.30;99.90;;;;;;5016666;28;20470;-91
2024/03/15 11:15:55;;;;;;;4.82;1.95;;;16.30;99.90;;;;;;5032852;28;20026;-91
2024/03/15 11:18:24;;;;;;;;;;;16.30;99.90;;;;;;5017378;28;20029;-91
2024/03/15 11:21:01;;;;;;;7.28;2.28;;;16.30;99.90;;;;;;5032069;28;20007;-90
2024/03/15 11:23:37;;;;;;;4.45;2.05;;;16.30;99.90;;;;;;5016156;28;20045;-92
2024/03/15 11:26:32;;;;;;;4.93;1.90;;;16.30;99.90;;;;;;5032553;28;20080;-93
2024/03/15 11:28:58;;;;;;;4.25;1.75;;;16.30;99.90;;;;;;5027752;28;20041;-92
2024/03/15 11:31:33;;;;;;;4.53;1.75;;;16.30;99.90;;;;;;5032077;28;20049;-92
2024/03/15 11:34:07;;;;;;;4.43;1.80;;;16.20;99.90;;;;;;5032322;28;20033;-89
2024/03/15 11:36:45;;;;;;;6.05;1.83;;;16.30;99.90;;;;;;5015917;28;20072;-91
2024/03/15 11:39:14;;;;;;;3.25;2.00;;;16.20;99.90;;;;;;5032174;28;20022;-91
2024/03/15 11:41:45;;;;;;;4.45;1.73;;;16.20;99.90;;;;;;5016645;28;20022;-90
2024/03/15 11:44:13;;;;;;;4.32;1.90;;;16.10;99.90;;;;;;5016440;28;20057;-93
2024/03/15 11:46:45;;;;;;;5.45;1.70;;;16.10;99.90;;;;;;5033209;28;20453;-93
2024/03/15 11:49:12;;;;;;;6.40;2.08;;;16.10;99.90;;;;;;5016988;28;20080;-93
2024/03/15 11:51:40;;;;;;;3.30;1.90;;;16.10;99.90;;;;;;5033471;28;20065;-93
2024/03/15 11:54:25;;;;;;;4.93;1.90;;;16.10;99.90;;;;;;5031700;28;20148;-92
2024/03/15 11:56:57;;;;;;;4.28;2.33;;;16.00;99.90;;;;;;5031708;28;20017;-93
2024/03/15 11:59:26;;;;;;;7.60;2.70;;;15.90;99.90;;;;;;5017735;28;20025;-93
2024/03/15 12:07:09;;;;;;;6.93;2.72;;;15.40;99.90;;;;;;4520372;22;20687;-94
2024/03/15 12:09:42;;;;;;;5.53;2.53;;;15.30;99.90;;;;;;5018683;28;20052;-93
2024/03/15 12:12:12;;;;;;;6.43;2.80;;;15.20;99.90;;;;;;5027130;28;20025;-93
2024/03/15 12:14:49;;;;;;;3.28;2.25;;;15.10;99.90;;;;;;5042029;28;20021;-94
2024/03/15 12:17:14;;;;;;;6.75;2.20;;;15.10;99.90;;;;;;5047289;28;20045;-92
2024/03/15 12:19:42;;;;;;;4.38;2.33;;;15.00;99.90;;;;;;5062997;28;20024;-88
2024/03/15 12:22:09;;;;;;;5.35;2.03;;;14.90;99.90;;;;;;5048420;28;20017;-92
2024/03/15 12:27:13;;;;;;;5.50;1.90;;;14.80;99.90;;;;;;5123740;22;20081;-95
2024/03/15 12:29:38;;;;;;;3.08;2.10;;;14.80;99.90;;;;;;5060328;28;20039;-94
2024/03/15 12:32:07;;;;;;;2.80;1.77;;;14.90;99.90;;;;;;5043327;28;20024;-94
2024/03/15 12:34:35;;;;;;;3.90;1.60;;;14.90;99.90;;;;;;5059011;28;20017;-94
2024/03/15 12:37:01;;;;;;;3.55;1.35;;;14.90;99.90;;;;;;5059078;28;20021;-94
2024/03/15 12:39:27;;;;;;;3.78;1.33;;;15.00;99.90;;;;;;5037912;28;20036;-94
2024/03/15 12:41:55;;;;;;;2.97;1.60;;;15.10;99.90;;;;;;5038669;28;20381;-93
2024/03/15 12:44:21;;;;;;;3.85;1.60;;;15.10;99.90;;;;;;5035155;28;20468;-93
2024/03/15 12:46:49;;;;;;;4.75;2.10;;;15.20;99.90;;;;;;5040979;28;20039;-95
2024/03/15 12:49:15;;;;;;;4.07;1.80;;;15.20;99.90;;;;;;5021181;28;20025;-92
2024/03/15 12:51:40;;;;;;;4.03;1.80;;;15.20;99.90;;;;;;5046509;28;20028;-94
2024/03/15 12:54:06;;;;;;;4.95;1.90;;;15.10;99.90;;;;;;5048962;28;20033;-94
2024/03/15 12:56:32;;;;;;;3.58;1.88;;;15.20;99.90;;;;;;5058350;28;20025;-92
2024/03/15 12:59:00;;;;;;;3.97;1.75;;;15.20;99.90;;;;;;5059307;28;20483;-92
2024/03/15 13:01:26;;;;;;;2.83;1.45;;;15.30;99.90;;;;;;5038188;28;20025;-94
2024/03/15 13:03:54;;;;;;;3.53;1.73;;;15.40;99.90;;;;;;5041531;28;20036;-94